Time;durP1;ratioP1;P1;durP2;ratioP2;P2;SDS_P1;SDS_P2;PMS_P1;PMS_P2;Temp;Humidity;BMP_temperature;BMP_pressure;BME280_temperature;BME280_humidity;BME280_pressure;Samples;Min_cycle;Max_cycle;Signal;HPM_P1;HPM_P2
2022/06/06 00:00:12;;;;;;;;;;;;;;;19.40;54.97;100133.88;5080903;28;20048;-79
2022/06/06 00:02:42;;;;;;;6.43;3.80;;;;;;;19.32;55.00;100132.94;5086587;28;20014;-78
2022/06/06 00:05:16;;;;;;;4.57;3.63;;;;;;;19.36;54.71;100129.75;5079662;28;20119;-78
2022/06/06 00:07:46;;;;;;;6.05;3.67;;;;;;;19.28;55.09;100132.34;5076541;28;20473;-78
2022/06/06 00:10:14;;;;;;;4.82;3.45;;;;;;;19.24;55.00;100127.41;5076448;28;20528;-78
2022/06/06 00:12:42;;;;;;;5.82;3.72;;;;;;;19.34;54.37;100137.16;5076319;28;20608;-78
2022/06/06 00:15:13;;;;;;;6.50;3.60;;;;;;;19.27;54.49;100119.84;5076123;28;20048;-77
2022/06/06 00:17:42;;;;;;;6.50;3.45;;;;;;;19.30;55.00;100121.38;5075790;28;20051;-78
2022/06/06 00:20:11;;;;;;;4.93;3.13;;;;;;;19.35;54.63;100128.06;5075659;28;20041;-77
2022/06/06 00:22:39;;;;;;;5.22;3.33;;;;;;;19.29;54.75;100125.09;5074375;28;20052;-78
2022/06/06 00:25:09;;;;;;;4.47;3.65;;;;;;;19.32;54.60;100112.13;5074826;28;20059;-77
2022/06/06 00:27:38;;;;;;;4.57;3.00;;;;;;;19.33;54.87;100126.50;5074246;28;20045;-78
2022/06/06 00:30:07;;;;;;;4.32;3.38;;;;;;;19.35;55.11;100135.31;5075568;28;20066;-78
2022/06/06 00:35:21;;;;;;;5.95;3.33;;;;;;;19.34;55.17;100134.47;5075689;28;20046;-77
2022/06/06 00:37:49;;;;;;;4.47;3.47;;;;;;;19.25;55.77;100138.06;5075598;28;20040;-77
2022/06/06 00:40:22;;;;;;;4.78;3.47;;;;;;;19.21;55.97;100139.41;5074928;28;20050;-77
2022/06/06 00:42:51;;;;;;;;;;;;;;;19.24;55.93;100139.09;5075558;28;20094;-77
2022/06/06 00:45:33;;;;;;;6.35;3.50;;;;;;;19.21;56.17;100143.94;5075206;28;19970;-77
2022/06/06 00:48:21;;;;;;;5.85;3.60;;;;;;;19.15;56.30;100153.50;5075326;28;20123;-77
2022/06/06 00:51:09;;;;;;;10.15;3.30;;;;;;;19.19;56.54;100157.59;5074862;28;20079;-77
2022/06/06 00:53:44;;;;;;;6.38;3.28;;;;;;;19.09;57.06;100146.81;5075046;28;20072;-79
2022/06/06 00:56:19;;;;;;;4.60;3.60;;;;;;;19.09;56.70;100144.13;5075258;28;20374;-80
2022/06/06 00:58:51;;;;;;;6.90;3.45;;;;;;;18.98;57.72;100149.72;5074943;28;20037;-81
2022/06/06 01:01:20;;;;;;;4.90;3.75;;;;;;;19.08;57.25;100153.25;5074984;28;20064;-80
2022/06/06 01:03:49;;;;;;;6.40;3.42;;;;;;;19.00;58.23;100160.38;5074703;28;20044;-81
2022/06/06 01:06:22;;;;;;;5.35;3.28;;;;;;;18.93;58.42;100170.97;5074688;28;20040;-81
2022/06/06 01:08:51;;;;;;;5.57;3.40;;;;;;;18.82;58.88;100177.41;5073785;28;20461;-81
2022/06/06 01:11:20;;;;;;;6.07;3.50;;;;;;;18.83;58.97;100175.53;5074891;28;20045;-81
2022/06/06 01:13:49;;;;;;;5.78;3.53;;;;;;;18.91;59.09;100183.75;5074344;28;20102;-82
2022/06/06 01:16:35;;;;;;;5.72;3.50;;;;;;;18.82;58.94;100199.00;5073475;28;20049;-82
2022/06/06 01:19:24;;;;;;;6.07;3.45;;;;;;;18.76;60.15;100205.00;5074674;28;20046;-83
2022/06/06 01:22:23;;;;;;;4.65;3.45;;;;;;;18.91;60.54;100208.06;5074635;28;20452;-82
2022/06/06 01:25:26;;;;;;;6.75;3.67;;;;;;;18.88;61.03;100206.50;5074059;28;20045;-83
2022/06/06 01:28:00;;;;;;;5.57;4.32;;;;;;;19.01;58.89;100205.34;5074740;28;20048;-83
2022/06/06 01:30:34;;;;;;;5.60;3.80;;;;;;;19.02;58.93;100217.88;5074162;28;20397;-84
2022/06/06 01:33:03;;;;;;;5.20;3.72;;;;;;;18.98;60.43;100222.69;5074489;28;20044;-81
2022/06/06 01:35:34;;;;;;;5.80;3.53;;;;;;;19.00;60.14;100238.78;5074005;28;20045;-78
2022/06/06 01:38:04;;;;;;;4.47;3.38;;;;;;;19.00;60.67;100250.44;5074266;28;20040;-79
2022/06/06 01:40:40;;;;;;;5.10;3.67;;;;;;;19.03;60.20;100252.00;5073548;28;20036;-82
2022/06/06 01:43:14;;;;;;;5.60;3.88;;;;;;;19.16;59.74;100252.53;5074176;28;20044;-81
2022/06/06 01:45:47;;;;;;;4.93;3.78;;;;;;;19.33;59.52;100259.88;5074087;28;20460;-78
2022/06/06 01:48:17;;;;;;;4.78;3.72;;;;;;;19.35;59.73;100252.47;5074147;28;20051;-78
2022/06/06 01:50:46;;;;;;;5.50;3.53;;;;;;;19.34;59.21;100252.63;5073860;28;20115;-78
2022/06/06 01:53:16;;;;;;;4.88;3.50;;;;;;;19.27;59.88;100252.34;5073912;28;20555;-78
2022/06/06 01:55:47;;;;;;;5.30;3.75;;;;;;;19.27;59.59;100256.91;5073907;28;20128;-78
2022/06/06 01:58:20;;;;;;;4.93;3.45;;;;;;;19.25;59.63;100257.06;5073858;28;20044;-81
2022/06/06 02:00:51;;;;;;;6.35;3.58;;;;;;;19.22;59.70;100260.06;5073891;28;20389;-81
2022/06/06 02:03:20;;;;;;;5.22;3.45;;;;;;;19.35;59.19;100268.69;5073980;28;20052;-79
2022/06/06 02:05:49;;;;;;;5.78;3.88;;;;;;;19.42;58.91;100274.38;5073611;28;20379;-75
2022/06/06 02:08:19;;;;;;;5.35;3.35;;;;;;;19.44;59.08;100278.63;5073572;28;20047;-78
2022/06/06 02:10:47;;;;;;;6.20;3.60;;;;;;;19.50;58.63;100279.03;5073366;28;20044;-78
2022/06/06 02:13:16;;;;;;;4.38;3.60;;;;;;;19.43;59.04;100285.03;5073468;28;20048;-78
2022/06/06 02:15:47;;;;;;;4.68;3.70;;;;;;;19.31;59.17;100280.81;5073258;28;20041;-78
2022/06/06 02:18:17;;;;;;;5.05;3.70;;;;;;;19.40;59.02;100285.34;5073369;28;20048;-78
2022/06/06 02:20:45;;;;;;;5.45;4.00;;;;;;;19.39;58.84;100298.97;5071971;28;20406;-78
2022/06/06 02:23:13;;;;;;;6.22;3.50;;;;;;;19.54;58.11;100296.66;5073729;28;20040;-77
2022/06/06 02:25:42;;;;;;;4.25;3.50;;;;;;;19.42;58.29;100299.56;5073294;28;20040;-77
2022/06/06 02:28:11;;;;;;;5.03;3.67;;;;;;;19.49;57.97;100288.97;5073494;28;20048;-78
2022/06/06 02:30:40;;;;;;;6.18;3.83;;;;;;;19.51;57.84;100280.75;5073219;28;20098;-76
2022/06/06 02:33:08;;;;;;;6.93;3.70;;;;;;;19.49;58.21;100269.19;5073653;28;20036;-76
2022/06/06 02:35:41;;;;;;;5.38;3.90;;;;;;;19.58;57.88;100250.25;5073264;28;20456;-76
2022/06/06 02:38:12;;;;;;;5.10;3.53;;;;;;;19.64;57.64;100246.94;5073480;28;20045;-76
2022/06/06 02:40:44;;;;;;;6.05;3.80;;;;;;;19.60;57.23;100242.00;5073148;28;20442;-74
2022/06/06 02:43:14;;;;;;;6.65;3.95;;;;;;;19.51;58.02;100251.84;5072899;28;20125;-74
2022/06/06 02:45:46;;;;;;;6.20;4.00;;;;;;;19.46;58.83;100259.53;5073024;28;20109;-74
2022/06/06 02:48:16;;;;;;;5.28;3.83;;;;;;;19.36;59.33;100266.84;5073331;28;20063;-73
2022/06/06 02:50:46;;;;;;;5.30;3.80;;;;;;;19.34;59.62;100268.84;5072944;28;20047;-74
2022/06/06 02:53:14;;;;;;;6.32;4.10;;;;;;;19.30;60.31;100270.13;5073208;28;20128;-73
2022/06/06 02:55:42;;;;;;;4.80;3.95;;;;;;;19.26;59.66;100272.28;5073061;28;20063;-74
2022/06/06 02:58:10;;;;;;;4.65;3.83;;;;;;;19.25;59.72;100275.13;5073142;28;20101;-73
2022/06/06 03:00:42;;;;;;;5.22;4.03;;;;;;;19.30;60.27;100283.63;5072792;28;20040;-77
2022/06/06 03:03:12;;;;;;;5.70;3.78;;;;;;;19.33;60.23;100292.34;5071817;28;20045;-77
2022/06/06 03:05:55;;;;;;;5.75;3.80;;;;;;;19.40;59.28;100293.44;5071887;28;20434;-77
2022/06/06 03:08:41;;;;;;;9.18;4.00;;;;;;;19.36;59.86;100292.03;5073080;28;20041;-77
2022/06/06 03:11:23;;;;;;;6.55;3.92;;;;;;;19.32;60.16;100295.19;5073163;28;20485;-77
2022/06/06 03:14:11;;;;;;;6.25;4.00;;;;;;;19.26;60.89;100291.22;5072844;28;20071;-74
2022/06/06 03:23:03;;;;;;;7.40;4.07;;;;;;;19.31;61.05;100280.81;5071113;28;20501;-78
2022/06/06 03:25:37;;;;;;;4.93;3.65;;;;;;;19.39;60.55;100280.91;5072605;28;20041;-77
2022/06/06 03:28:12;;;;;;;5.53;3.58;;;;;;;19.47;60.28;100282.03;5072866;28;20047;-77
2022/06/06 03:30:49;;;;;;;6.13;3.90;;;;;;;19.35;60.92;100279.50;5073455;28;20048;-75
2022/06/06 03:33:25;;;;;;;5.95;4.30;;;;;;;19.47;61.06;100268.50;5076692;28;20040;-75
2022/06/06 03:36:03;;;;;;;5.80;4.03;;;;;;;19.22;62.19;100261.91;5076377;28;20394;-75
2022/06/06 03:38:40;;;;;;;5.05;3.85;;;;;;;19.26;61.53;100255.19;5076468;28;20060;-78
2022/06/06 03:41:16;;;;;;;5.47;4.20;;;;;;;19.11;62.37;100250.28;5076579;28;20128;-78
2022/06/06 03:43:52;;;;;;;5.85;4.60;;;;;;;19.02;63.07;100253.88;5076448;28;20040;-78
2022/06/06 03:46:29;;;;;;;5.10;4.15;;;;;;;19.20;62.49;100245.81;5076762;28;20037;-78
2022/06/06 03:49:14;;;;;;;6.32;4.18;;;;;;;19.10;62.25;100245.84;5075294;28;20387;-79
2022/06/06 03:51:52;;;;;;;5.78;4.30;;;;;;;18.92;63.19;100238.69;5076194;28;20129;-78
2022/06/06 03:54:31;;;;;;;5.35;4.03;;;;;;;18.98;62.55;100244.31;5076514;28;20040;-78
2022/06/06 03:57:12;;;;;;;5.30;3.97;;;;;;;19.13;62.64;100236.63;5076424;28;20036;-79
2022/06/06 03:59:42;;;;;;;5.10;3.90;;;;;;;19.00;62.87;100233.38;5075982;28;20051;-77
2022/06/06 04:02:16;;;;;;;6.80;4.20;;;;;;;19.07;62.95;100237.19;5075808;28;20079;-75
2022/06/06 04:04:45;;;;;;;7.47;4.32;;;;;;;18.92;63.59;100230.56;5075650;28;20498;-75
2022/06/06 04:07:13;;;;;;;5.93;4.53;;;;;;;18.98;63.39;100225.41;5075989;28;20040;-76
2022/06/06 04:09:43;;;;;;;5.78;4.22;;;;;;;19.06;63.05;100222.81;5074734;28;20066;-79
2022/06/06 04:12:36;;;;;;;5.50;4.22;;;;;;;19.05;63.09;100220.28;5076182;28;20097;-79
2022/06/06 04:15:26;;;;;;;7.32;4.45;;;;;;;19.03;62.96;100230.38;5076190;28;20050;-81
2022/06/06 04:18:08;;;;;;;6.38;4.28;;;;;;;18.84;63.75;100225.88;5076364;28;20041;-84
2022/06/06 04:20:42;;;;;;;5.70;4.65;;;;;;;18.98;63.19;100222.69;5075571;28;20044;-83
2022/06/06 04:23:33;;;;;;;6.15;4.55;;;;;;;19.00;63.55;100226.09;5079652;28;20048;-82
2022/06/06 04:26:19;;;;;;;7.20;4.88;;;;;;;19.02;63.41;100225.97;5093851;28;20442;-83
2022/06/06 04:28:56;;;;;;;5.57;4.32;;;;;;;18.88;63.53;100228.13;5079857;28;20049;-77
2022/06/06 04:31:36;;;;;;;6.05;4.68;;;;;;;18.94;64.22;100224.00;5075916;28;20079;-79
2022/06/06 04:34:12;;;;;;;6.18;4.53;;;;;;;18.94;63.28;100231.28;5075893;28;20093;-78
2022/06/06 04:36:47;;;;;;;5.82;4.50;;;;;;;18.86;64.21;100232.84;5075442;28;20044;-80
2022/06/06 04:39:24;;;;;;;6.97;4.85;;;;;;;18.92;63.79;100239.53;5075323;28;20097;-75
2022/06/06 04:41:59;;;;;;;6.60;4.85;;;;;;;18.93;64.25;100237.69;5073621;28;20048;-71
2022/06/06 04:44:36;;;;;;;6.90;4.93;;;;;;;18.99;64.11;100237.91;5075348;28;20040;-72
2022/06/06 04:47:11;;;;;;;6.90;5.00;;;;;;;19.03;64.26;100239.34;5075298;28;20478;-76
2022/06/06 04:49:40;;;;;;;5.82;4.65;;;;;;;19.13;63.24;100250.13;5075045;28;20075;-76
2022/06/06 04:52:09;;;;;;;5.50;4.47;;;;;;;19.16;63.25;100255.25;5075175;28;20052;-78
2022/06/06 04:54:41;;;;;;;6.55;5.10;;;;;;;19.13;63.69;100267.22;5074265;28;20049;-78
2022/06/06 04:57:12;;;;;;;8.50;5.30;;;;;;;19.15;63.96;100264.34;5074958;28;20119;-75
2022/06/06 04:59:42;;;;;;;5.85;4.82;;;;;;;19.27;63.50;100267.72;5075165;28;20045;-80
2022/06/06 05:02:10;;;;;;;6.57;5.18;;;;;;;19.29;63.30;100271.13;5075455;28;20060;-73
2022/06/06 05:04:38;;;;;;;7.75;5.22;;;;;;;19.45;63.11;100271.34;5074916;28;20073;-75
2022/06/06 05:07:31;;;;;;;7.22;5.45;;;;;;;19.37;63.29;100280.19;5074943;28;20043;-76
2022/06/06 05:10:27;;;;;;;8.50;5.20;;;;;;;19.41;64.39;100287.03;5068245;28;20051;-78
2022/06/06 05:13:43;;;;;;;6.35;4.97;;;;;;;19.53;63.83;100286.84;5073496;28;20044;-75
2022/06/06 05:16:29;;;;;;;8.25;4.85;;;;;;;19.68;62.51;100290.78;5042817;28;20059;-75
2022/06/06 05:19:20;;;;;;;8.55;5.10;;;;;;;19.73;61.79;100280.38;5074553;28;20459;-75
2022/06/06 05:22:06;;;;;;;6.13;4.93;;;;;;;19.72;62.27;100279.53;5073109;28;20493;-74
2022/06/06 05:25:06;;;;;;;7.70;5.15;;;;;;;19.63;62.25;100291.25;5074574;28;20094;-74
2022/06/06 05:28:02;;;;;;;6.13;4.95;;;;;;;19.82;61.54;100294.88;5070460;28;20045;-75
2022/06/06 05:30:38;;;;;;;7.07;5.03;;;;;;;20.05;61.29;100298.00;5074647;28;20073;-75
2022/06/06 05:33:12;;;;;;;9.48;5.30;;;;;;;20.19;60.82;100292.91;5073987;28;20094;-75
2022/06/06 05:36:09;;;;;;;7.32;5.05;;;;;;;20.09;60.47;100294.00;5074000;28;20052;-75
2022/06/06 05:38:55;;;;;;;7.50;5.43;;;;;;;20.29;59.74;100293.72;5074268;28;20045;-75
2022/06/06 05:41:33;;;;;;;9.15;5.43;;;;;;;20.81;58.38;100301.16;5074185;28;20072;-75
2022/06/06 05:44:09;;;;;;;8.35;5.00;;;;;;;20.88;58.30;100296.81;5074033;28;20040;-76
2022/06/06 05:46:47;;;;;;;6.05;5.28;;;;;;;20.89;57.89;100301.22;5072922;28;20048;-74
2022/06/06 05:49:42;;;;;;;6.35;5.00;;;;;;;20.92;57.48;100298.19;5074154;28;20041;-73
2022/06/06 05:52:43;;;;;;;7.30;4.75;;;;;;;20.57;58.32;100297.22;5073978;28;20118;-77
2022/06/06 05:55:24;;;;;;;7.68;5.10;;;;;;;20.63;57.32;100309.28;5058631;28;20486;-78
2022/06/06 05:58:28;;;;;;;6.05;4.85;;;;;;;20.66;58.14;100306.28;5073840;28;20036;-77
2022/06/06 06:01:09;;;;;;;7.93;5.22;;;;;;;20.69;58.20;100305.13;5073752;28;20070;-76
2022/06/06 06:04:04;;;;;;;5.88;4.80;;;;;;;20.90;57.37;100307.50;5073978;28;20037;-76
2022/06/06 06:06:41;;;;;;;8.05;4.70;;;;;;;20.94;57.28;100309.75;5073810;28;20045;-79
2022/06/06 06:09:24;;;;;;;7.47;4.88;;;;;;;20.66;58.36;100310.84;5073861;28;20066;-80
2022/06/06 06:12:31;;;;;;;8.13;5.40;;;;;;;20.62;58.70;100315.72;5073489;28;20048;-78
2022/06/06 06:15:10;;;;;;;9.20;5.43;;;;;;;20.60;58.99;100306.06;5064127;28;20490;-79
2022/06/06 06:17:41;;;;;;;8.20;4.95;;;;;;;20.53;58.11;100317.50;5073713;28;20436;-79
2022/06/06 06:20:11;;;;;;;7.85;5.03;;;;;;;20.55;58.81;100312.75;5073258;28;20497;-79
2022/06/06 06:22:46;;;;;;;8.20;5.07;;;;;;;20.71;57.62;100314.78;5073274;28;20044;-78
2022/06/06 06:25:16;;;;;;;7.55;5.10;;;;;;;20.48;58.49;100317.13;5073745;28;20445;-79
2022/06/06 06:27:47;;;;;;;5.95;4.78;;;;;;;20.57;58.95;100318.06;5072624;28;20063;-77
2022/06/06 06:30:18;;;;;;;6.93;5.07;;;;;;;20.63;58.65;100314.72;5073660;28;20037;-77
2022/06/06 06:33:05;;;;;;;6.65;5.05;;;;;;;20.69;59.10;100326.81;5073017;28;20115;-76
2022/06/06 06:35:45;;;;;;;7.90;5.10;;;;;;;20.54;59.17;100323.75;5073495;28;20045;-82
2022/06/06 06:38:34;;;;;;;9.27;5.38;;;;;;;20.54;57.92;100318.34;5071943;28;20048;-78
2022/06/06 06:41:14;;;;;;;6.65;4.97;;;;;;;20.40;59.02;100311.59;5077574;28;20051;-74
2022/06/06 06:43:55;;;;;;;7.35;4.47;;;;;;;20.52;58.03;100321.22;5073743;28;20044;-83
2022/06/06 06:46:28;;;;;;;7.47;4.93;;;;;;;20.27;58.72;100316.53;5072531;28;20110;-78
2022/06/06 06:49:09;;;;;;;7.53;5.20;;;;;;;20.32;58.12;100316.06;5072940;28;20052;-81
2022/06/06 06:51:49;;;;;;;5.97;4.47;;;;;;;20.57;57.69;100310.78;5073338;28;20045;-81
2022/06/06 06:54:34;;;;;;;7.53;5.13;;;;;;;20.73;57.89;100311.91;5073224;28;20040;-81
2022/06/06 06:57:32;;;;;;;7.65;4.68;;;;;;;20.81;58.40;100314.69;5073127;28;20044;-88
2022/06/06 07:00:11;;;;;;;9.30;5.05;;;;;;;20.70;58.03;100313.09;5073151;28;20390;-82
2022/06/06 07:08:49;;;;;;;7.47;5.00;;;;;;;21.02;57.56;100323.34;5077376;28;20384;-80
2022/06/06 07:11:36;;;;;;;6.40;4.63;;;;;;;20.99;56.68;100323.66;5073517;28;20051;-76
2022/06/06 07:14:13;;;;;;;8.02;5.18;;;;;;;20.93;56.39;100318.00;5072965;28;20049;-73
2022/06/06 07:16:42;;;;;;;7.07;4.95;;;;;;;20.87;55.72;100319.50;5056707;28;20045;-75
2022/06/06 07:19:15;;;;;;;7.57;5.28;;;;;;;20.97;56.14;100314.00;5056212;28;20099;-75
2022/06/06 07:21:46;;;;;;;11.27;5.05;;;;;;;21.12;55.31;100324.09;5054812;28;20052;-76
2022/06/06 07:24:17;;;;;;;6.22;4.70;;;;;;;21.28;55.60;100317.13;5055842;28;20045;-76
2022/06/06 07:26:51;;;;;;;6.35;4.60;;;;;;;21.30;55.66;100318.66;5056147;28;20041;-76
2022/06/06 07:29:21;;;;;;;8.10;4.65;;;;;;;21.19;55.64;100318.91;5055993;28;20441;-75
2022/06/06 07:32:12;;;;;;;7.70;4.53;;;;;;;21.28;55.43;100327.97;5055971;28;20049;-75
2022/06/06 07:34:52;;;;;;;6.63;4.40;;;;;;;20.90;56.64;100330.03;5054835;28;20085;-76
2022/06/06 07:37:36;;;;;;;6.68;4.80;;;;;;;21.19;55.89;100334.31;5054604;28;20514;-74
2022/06/06 07:40:11;;;;;;;6.93;4.43;;;;;;;21.36;55.99;100331.59;5054452;28;20045;-74
2022/06/06 07:43:07;;;;;;;7.90;5.20;;;;;;;21.27;56.60;100332.56;5055692;28;20045;-74
2022/06/06 07:45:42;;;;;;;6.40;4.90;;;;;;;21.64;55.33;100332.28;5055123;28;20099;-75
2022/06/06 07:48:27;;;;;;;6.10;4.40;;;;;;;21.58;54.90;100341.03;5054370;28;20421;-77
2022/06/06 07:51:04;;;;;;;6.45;4.72;;;;;;;21.36;56.13;100342.44;5055745;28;20060;-78
2022/06/06 07:53:46;;;;;;;8.57;4.32;;;;;;;21.53;55.00;100348.84;5055528;28;20463;-78
2022/06/06 07:56:19;;;;;;;8.00;4.97;;;;;;;21.68;54.60;100336.34;5055700;28;20390;-79
2022/06/06 07:58:59;;;;;;;6.50;4.80;;;;;;;21.60;54.48;100344.44;5055727;28;20047;-76
2022/06/06 08:01:37;;;;;;;6.45;4.70;;;;;;;21.70;54.74;100347.03;5055285;28;20087;-75
2022/06/06 08:04:25;;;;;;;7.30;4.70;;;;;;;21.66;54.46;100351.94;5055444;28;20037;-75
2022/06/06 08:07:06;;;;;;;6.20;4.85;;;;;;;21.83;54.35;100343.91;5055629;28;20602;-75
2022/06/06 08:09:56;;;;;;;5.90;4.53;;;;;;;21.71;55.52;100346.91;5054306;28;20091;-77
2022/06/06 08:12:39;;;;;;;6.70;5.00;;;;;;;22.07;54.61;100338.59;5072603;28;20076;-76
2022/06/06 08:15:15;;;;;;;;;;;;;;;22.14;54.28;100344.22;5074343;28;20105;-75
2022/06/06 08:18:04;;;;;;;5.47;4.60;;;;;;;22.31;53.90;100345.13;5074518;28;20334;-75
2022/06/06 08:20:42;;;;;;;7.00;5.28;;;;;;;22.45;53.26;100336.31;5075148;28;20040;-74
2022/06/06 08:23:11;;;;;;;6.55;5.22;;;;;;;22.33;53.41;100345.81;5073439;28;20060;-76
2022/06/06 08:25:41;;;;;;;7.22;4.82;;;;;;;22.39;52.49;100336.97;5074987;28;20124;-76
2022/06/06 08:28:11;;;;;;;6.35;5.10;;;;;;;22.25;52.66;100330.34;5073667;28;20041;-70
2022/06/06 08:30:43;;;;;;;6.55;4.72;;;;;;;22.35;52.34;100338.34;5073853;28;20087;-71
2022/06/06 08:33:11;;;;;;;7.10;4.80;;;;;;;22.52;52.04;100330.06;5071285;28;20048;-73
2022/06/06 08:35:49;;;;;;;6.72;4.93;;;;;;;22.61;51.76;100339.06;5062884;28;20037;-72
2022/06/06 08:38:31;;;;;;;9.35;4.75;;;;;;;22.57;51.19;100338.53;5054698;28;20045;-74
2022/06/06 08:41:36;;;;;;;5.45;4.50;;;;;;;22.71;50.30;100336.19;5055611;28;20064;-74
2022/06/06 08:44:18;;;;;;;7.45;4.55;;;;;;;22.90;49.76;100335.91;5054624;28;20044;-73
2022/06/06 08:47:02;;;;;;;6.32;4.57;;;;;;;22.58;51.19;100333.94;5054917;28;20068;-76
2022/06/06 08:53:14;;;;;;;5.90;4.30;;;;;;;23.10;49.55;100336.41;5030057;28;20429;-82
2022/06/06 08:55:54;;;;;;;;;;;;;;;23.67;47.80;100339.06;5053970;28;20049;-77
2022/06/06 08:59:01;;;;;;;5.97;4.30;;;;;;;23.78;47.64;100333.22;5054322;28;20307;-73
2022/06/06 09:01:53;;;;;;;5.75;4.50;;;;;;;23.58;47.91;100327.31;5054110;28;20061;-75
2022/06/06 09:04:48;;;;;;;5.80;4.73;;;;;;;23.51;47.25;100331.75;5073881;28;20036;-76
2022/06/06 09:07:58;;;;;;;5.40;4.45;;;;;;;23.56;47.95;100323.06;5074095;28;20043;-77
2022/06/06 09:11:02;;;;;;;6.32;4.40;;;;;;;23.76;47.62;100334.44;5073593;28;20041;-77
2022/06/06 09:14:05;;;;;;;6.88;4.40;;;;;;;23.43;48.10;100323.59;5074073;28;20097;-76
2022/06/06 09:17:25;;;;;;;4.88;4.18;;;;;;;23.78;47.90;100319.63;5073005;28;20045;-78
2022/06/06 09:20:40;;;;;;;6.05;4.32;;;;;;;24.03;46.42;100316.78;5074078;28;20067;-80
2022/06/06 09:23:43;;;;;;;5.50;4.10;;;;;;;23.88;46.39;100320.25;5073585;28;20067;-79
2022/06/06 09:26:24;;;;;;;8.68;4.20;;;;;;;23.85;46.87;100311.59;5073690;28;20051;-77
2022/06/06 09:29:28;;;;;;;5.65;3.92;;;;;;;23.73;46.99;100308.38;5072974;28;20044;-80
2022/06/06 09:32:34;;;;;;;7.30;4.38;;;;;;;23.49;46.26;100300.28;5073751;28;20043;-79
2022/06/06 09:35:32;;;;;;;6.13;4.03;;;;;;;23.59;47.98;100300.97;5053973;28;20044;-78
2022/06/06 09:38:25;;;;;;;6.32;4.00;;;;;;;23.82;46.62;100301.88;5053601;28;20068;-78
2022/06/06 09:41:19;;;;;;;5.60;4.05;;;;;;;23.67;45.37;100299.06;5059937;28;20509;-77
2022/06/06 09:43:55;;;;;;;;;;;;;;;23.55;47.08;100299.59;5074052;28;20041;-73
2022/06/06 09:46:52;;;;;;;6.75;4.28;;;;;;;23.48;46.77;100291.25;5073433;28;20018;-73
2022/06/06 09:49:57;;;;;;;6.57;4.70;;;;;;;23.71;47.45;100294.09;5151571;27;20355;-79
2022/06/06 09:53:12;;;;;;;5.03;4.07;;;;;;;23.76;46.79;100291.72;5112414;28;20047;-77
2022/06/06 09:59:38;;;;;;;5.43;3.80;;;;;;;23.91;45.25;100283.63;5130880;28;20103;-78
2022/06/06 10:02:51;;;;;;;6.25;3.70;;;;;;;23.86;44.76;100278.72;5092789;28;20063;-80
2022/06/06 10:06:04;;;;;;;4.88;3.75;;;;;;;24.05;44.37;100277.44;5130573;28;20057;-79
2022/06/06 10:09:09;;;;;;;4.97;3.60;;;;;;;24.17;44.43;100272.44;5130234;28;20482;-79
2022/06/06 10:12:07;;;;;;;4.40;3.70;;;;;;;24.11;45.01;100264.97;5099912;28;20051;-83
2022/06/06 10:14:54;;;;;;;6.22;3.80;;;;;;;24.13;44.21;100273.84;5131017;28;20093;-84
2022/06/06 10:17:40;;;;;;;4.72;3.60;;;;;;;24.08;44.03;100274.34;5111863;28;20047;-84
2022/06/06 10:20:26;;;;;;;6.35;3.28;;;;;;;24.25;43.10;100280.56;5130478;28;20043;-80
2022/06/06 10:23:24;;;;;;;11.27;3.42;;;;;;;24.25;42.74;100280.56;5130061;28;20043;-76
2022/06/06 10:26:27;;;;;;;5.63;3.42;;;;;;;24.46;42.30;100272.59;5128992;28;20055;-78
2022/06/06 10:30:12;;;;;;;4.68;3.05;;;;;;;24.53;41.48;100273.59;5130059;28;20437;-80
2022/06/06 10:33:28;;;;;;;4.63;3.25;;;;;;;24.59;40.25;100272.00;5129578;28;20043;-76
2022/06/06 10:36:21;;;;;;;5.15;3.28;;;;;;;24.67;40.67;100261.03;5112018;28;20472;-76
2022/06/06 10:39:11;;;;;;;5.30;3.30;;;;;;;24.73;40.99;100256.72;5128337;28;20100;-79
2022/06/06 10:42:00;;;;;;;4.80;3.10;;;;;;;24.85;39.75;100263.44;5108079;28;20050;-77
2022/06/06 10:45:24;;;;;;;4.20;2.85;;;;;;;24.58;38.42;100253.94;5109498;28;20139;-77
2022/06/06 10:48:24;;;;;;;4.45;2.90;;;;;;;24.88;38.39;100248.56;5047727;28;20052;-76
2022/06/06 10:51:40;;;;;;;3.80;3.00;;;;;;;25.05;38.98;100244.69;5080994;28;20044;-76
2022/06/06 10:54:36;;;;;;;4.55;3.20;;;;;;;25.27;38.25;100240.16;5109607;28;20069;-77
2022/06/06 10:57:37;;;;;;;4.97;3.17;;;;;;;25.24;39.06;100244.13;5090512;28;20412;-77
2022/06/06 11:00:20;;;;;;;4.75;2.88;;;;;;;25.00;37.07;100244.38;5062488;28;20048;-73
2022/06/06 11:03:12;;;;;;;4.90;3.10;;;;;;;24.88;37.22;100238.50;5102147;28;20110;-75
2022/06/06 11:06:14;;;;;;;4.80;2.90;;;;;;;25.00;37.49;100233.47;5097506;28;20486;-76
2022/06/06 11:09:25;;;;;;;4.43;2.70;;;;;;;25.20;36.54;100225.59;5115804;28;20044;-76
2022/06/06 11:12:22;;;;;;;3.92;2.75;;;;;;;25.32;36.59;100230.41;5093527;28;20048;-79
2022/06/06 11:14:51;;;;;;;3.80;2.83;;;;;;;25.08;36.72;100231.50;5094906;28;20457;-78
2022/06/06 11:17:45;;;;;;;4.35;2.80;;;;;;;25.30;35.27;100217.97;5094797;28;20044;-77
2022/06/06 11:20:48;;;;;;;3.88;2.70;;;;;;;25.22;35.09;100220.78;5094641;28;20032;-80
2022/06/06 11:23:44;;;;;;;3.33;2.50;;;;;;;25.02;32.42;100215.88;5094762;28;20044;-78
2022/06/06 11:26:53;;;;;;;3.17;2.30;;;;;;;24.99;34.28;100224.38;5094832;28;20036;-92
2022/06/06 11:29:37;;;;;;;3.38;2.53;;;;;;;25.27;34.20;100219.19;5094320;28;20470;-77
2022/06/06 11:32:56;;;;;;;3.58;2.70;;;;;;;25.50;36.48;100210.06;5095598;28;20044;-72
2022/06/06 11:35:29;;;;;;;3.88;2.80;;;;;;;25.51;35.03;100218.06;5096793;28;20043;-72
2022/06/06 11:38:29;;;;;;;3.83;2.50;;;;;;;25.60;34.93;100216.91;5115167;28;20063;-74
2022/06/06 11:41:30;;;;;;;4.50;2.45;;;;;;;25.58;33.67;100218.16;5114560;28;20031;-76
2022/06/06 11:44:14;;;;;;;4.43;2.80;;;;;;;25.34;34.22;100211.94;5108966;28;20062;-76
2022/06/06 11:47:40;;;;;;;5.15;2.90;;;;;;;25.43;34.68;100203.66;5097286;28;20063;-77
2022/06/06 11:50:34;;;;;;;4.25;2.63;;;;;;;25.75;34.20;100205.13;5061431;28;20051;-76
2022/06/06 11:53:26;;;;;;;3.92;2.70;;;;;;;25.75;34.22;100200.50;5093915;28;20134;-77
2022/06/06 11:56:05;;;;;;;4.40;2.92;;;;;;;25.66;33.82;100199.75;5115158;28;20467;-80
2022/06/06 11:59:04;;;;;;;3.97;2.10;;;;;;;25.69;31.31;100193.91;5114237;28;20048;-84
2022/06/06 12:02:14;;;;;;;4.78;2.78;;;;;;;25.82;32.98;100197.88;5096873;28;20056;-87
2022/06/06 12:05:21;;;;;;;4.25;2.55;;;;;;;25.77;32.34;100189.38;5115207;28;20067;-75
2022/06/06 12:08:27;;;;;;;4.43;2.78;;;;;;;25.99;32.65;100180.22;5114568;28;20089;-75
2022/06/06 12:11:25;;;;;;;3.67;2.50;;;;;;;25.98;32.26;100175.78;5085827;28;20095;-75
2022/06/06 12:14:14;;;;;;;4.47;2.67;;;;;;;25.89;33.49;100171.47;5113339;28;20554;-77
2022/06/06 12:16:57;;;;;;;4.10;2.78;;;;;;;25.83;33.92;100174.97;5114788;28;20039;-76
2022/06/06 12:20:02;;;;;;;3.95;2.90;;;;;;;25.85;35.34;100173.72;5114973;28;20136;-76
2022/06/06 12:22:57;;;;;;;4.25;3.00;;;;;;;25.83;35.85;100173.09;5113040;28;20052;-78
2022/06/06 12:25:54;;;;;;;5.70;2.75;;;;;;;26.02;34.76;100166.16;5113639;28;20075;-76
2022/06/06 12:28:59;;;;;;;4.30;2.90;;;;;;;26.21;32.98;100168.22;5113344;28;20078;-76
2022/06/06 12:31:42;;;;;;;4.78;2.78;;;;;;;25.97;33.76;100163.16;5113762;28;20142;-76
2022/06/06 12:34:22;;;;;;;;;;;;;;;25.85;33.06;100165.53;5114901;28;20047;-76
2022/06/06 12:36:57;;;;;;;6.65;2.70;;;;;;;25.99;30.90;100154.75;5114587;28;19962;-76
2022/06/06 12:39:37;;;;;;;3.17;2.60;;;;;;;26.08;32.79;100159.91;5114720;28;20067;-77
2022/06/06 12:42:12;;;;;;;4.22;2.78;;;;;;;26.03;32.97;100154.16;5113491;28;20073;-76
2022/06/06 12:45:13;;;;;;;4.15;2.97;;;;;;;26.17;32.50;100158.75;5114325;28;20036;-74
2022/06/06 12:48:17;;;;;;;4.43;2.38;;;;;;;26.25;31.91;100141.38;5111100;28;20055;-77
2022/06/06 12:50:57;;;;;;;3.58;2.60;;;;;;;26.40;30.96;100152.22;5114297;28;20438;-76
2022/06/06 12:54:05;;;;;;;3.60;2.47;;;;;;;26.29;30.61;100136.34;5114362;28;20043;-74
2022/06/06 12:56:48;;;;;;;4.63;2.85;;;;;;;26.46;32.95;100146.00;5114343;28;20089;-77
2022/06/06 12:59:27;;;;;;;4.07;3.00;;;;;;;26.20;33.20;100144.66;5114482;28;20122;-76
2022/06/06 13:02:01;;;;;;;5.05;3.00;;;;;;;26.11;32.82;100140.38;5114332;28;20389;-74